createdAt,value
2018-05-13T00:00:23.713Z,7.90
2018-05-13T00:01:28.592Z,9.73
2018-05-13T00:02:31.056Z,8.15
2018-05-13T00:03:33.517Z,8.32
2018-05-13T00:04:35.980Z,12.05
2018-05-13T00:05:40.191Z,8.45
2018-05-13T00:06:42.703Z,10.63
2018-05-13T00:07:45.168Z,8.85
2018-05-13T00:08:47.686Z,10.43
2018-05-13T00:09:50.151Z,9.30
2018-05-13T00:10:52.819Z,10.68
2018-05-13T00:11:55.576Z,11.85
2018-05-13T00:12:58.808Z,11.95
2018-05-13T00:14:01.284Z,13.40
2018-05-13T00:15:04.008Z,9.32
2018-05-13T00:16:06.813Z,10.88
2018-05-13T00:17:09.306Z,12.27
2018-05-13T00:18:12.540Z,10.93
2018-05-13T00:19:15.005Z,9.80
2018-05-13T00:20:18.590Z,13.82
2018-05-13T00:21:21.255Z,13.00
2018-05-13T00:22:23.780Z,13.52
2018-05-13T00:23:27.017Z,10.38
2018-05-13T00:24:29.475Z,11.32
2018-05-13T00:25:32.174Z,9.50
2018-05-13T00:26:35.423Z,10.45
2018-05-13T00:27:38.244Z,10.02
2018-05-13T00:28:40.708Z,10.48
2018-05-13T00:29:44.684Z,9.43
2018-05-13T00:30:47.422Z,8.65
2018-05-13T00:31:49.920Z,8.73
2018-05-13T00:32:52.411Z,8.93
2018-05-13T00:33:54.876Z,8.35
2018-05-13T00:34:58.107Z,7.93
2018-05-13T00:36:00.877Z,7.28
2018-05-13T00:37:03.360Z,8.88
2018-05-13T00:38:05.853Z,8.52
2018-05-13T00:39:09.828Z,9.32
2018-05-13T00:40:12.469Z,8.75
2018-05-13T00:41:15.137Z,8.88
2018-05-13T00:42:17.632Z,7.50
2018-05-13T00:43:20.147Z,7.32
2018-05-13T00:44:23.372Z,8.20
2018-05-13T00:45:26.631Z,7.50
2018-05-13T00:46:29.176Z,8.02
2018-05-13T00:47:32.400Z,6.87
2018-05-13T00:48:34.891Z,9.00
2018-05-13T00:49:37.356Z,6.90
2018-05-13T00:50:40.118Z,7.00
2018-05-13T00:51:42.608Z,8.35
2018-05-13T00:52:45.836Z,7.40
2018-05-13T00:53:48.320Z,6.93
2018-05-13T00:54:55.666Z,6.45
2018-05-13T00:55:59.263Z,7.45
2018-05-13T00:57:01.745Z,8.00
2018-05-13T00:58:04.208Z,6.57
2018-05-13T00:59:06.688Z,6.43
2018-05-13T01:00:09.470Z,6.50
2018-05-13T01:01:12.912Z,7.25
2018-05-13T01:02:15.400Z,7.25
2018-05-13T01:03:17.855Z,7.60
2018-05-13T01:04:20.335Z,6.70
2018-05-13T01:05:22.974Z,7.47
2018-05-13T01:06:25.746Z,6.53
2018-05-13T01:07:28.243Z,6.70
2018-05-13T01:08:30.708Z,6.28
2018-05-13T01:09:33.180Z,6.72
2018-05-13T01:10:36.654Z,5.75
2018-05-13T01:11:39.128Z,5.60
2018-05-13T01:12:41.592Z,6.03
2018-05-13T01:13:44.052Z,5.12
2018-05-13T01:14:46.547Z,5.28
2018-05-13T01:15:50.014Z,4.90
2018-05-13T01:16:53.274Z,5.10
2018-05-13T01:17:55.743Z,7.62
2018-05-13T01:18:58.206Z,4.78
2018-05-13T01:20:00.681Z,7.35
2018-05-13T01:21:03.418Z,5.32
2018-05-13T01:22:05.915Z,5.03
2018-05-13T01:23:08.379Z,5.20
2018-05-13T01:24:10.840Z,5.45
2018-05-13T01:25:13.685Z,4.95
2018-05-13T01:26:16.457Z,4.80
2018-05-13T01:27:18.956Z,4.70
2018-05-13T01:28:21.425Z,4.50
2018-05-13T01:29:23.884Z,4.25
2018-05-13T01:30:26.622Z,5.35
2018-05-13T01:31:29.597Z,5.07
2018-05-13T01:32:32.059Z,5.87
2018-05-13T01:33:34.527Z,6.35
2018-05-13T01:34:37.000Z,6.53
2018-05-13T01:35:39.760Z,5.68
2018-05-13T01:36:42.257Z,5.75
2018-05-13T01:37:44.729Z,5.28
2018-05-13T01:38:47.210Z,4.57
2018-05-13T01:39:49.688Z,6.15
2018-05-13T01:40:52.494Z,6.95
2018-05-13T01:41:54.976Z,6.00
2018-05-13T01:42:57.436Z,6.03
2018-05-13T01:43:59.899Z,5.72
2018-05-13T01:45:02.414Z,5.53
2018-05-13T01:46:05.902Z,5.47
2018-05-13T01:47:08.396Z,6.68
2018-05-13T01:48:10.865Z,6.45
2018-05-13T01:49:13.326Z,4.95
2018-05-13T01:50:16.046Z,4.62
2018-05-13T01:51:18.787Z,4.78
2018-05-13T01:52:21.317Z,7.00
2018-05-13T01:53:23.744Z,5.72
2018-05-13T01:54:26.207Z,5.28
2018-05-13T01:55:28.842Z,5.53
2018-05-13T01:56:31.348Z,5.40
2018-05-13T01:57:33.813Z,4.95
2018-05-13T01:58:36.275Z,6.90
2018-05-13T01:59:40.255Z,6.18
2018-05-13T02:00:43.205Z,5.28
2018-05-13T02:01:45.733Z,5.62
2018-05-13T02:02:48.968Z,5.65
2018-05-13T02:03:51.457Z,6.00
2018-05-13T02:04:53.926Z,5.80
2018-05-13T02:05:56.575Z,5.65
2018-05-13T02:06:59.110Z,5.50
2018-05-13T02:08:01.606Z,5.30
2018-05-13T02:09:04.080Z,5.35
2018-05-13T02:10:06.818Z,5.20
2018-05-13T02:11:09.635Z,6.22
2018-05-13T02:12:12.904Z,5.12
2018-05-13T02:13:15.392Z,5.65
2018-05-13T02:14:17.869Z,5.30
2018-05-13T02:15:21.392Z,5.60
2018-05-13T02:16:24.166Z,5.30
2018-05-13T02:17:26.691Z,5.00
2018-05-13T02:18:29.941Z,4.57
2018-05-13T02:19:32.409Z,6.65
2018-05-13T02:20:35.089Z,6.47
2018-05-13T02:21:37.568Z,5.03
2018-05-13T02:22:40.820Z,4.82
2018-05-13T02:23:43.290Z,4.75
2018-05-13T02:24:45.752Z,4.95
2018-05-13T02:25:48.531Z,4.93
2018-05-13T02:26:51.788Z,4.68
2018-05-13T02:27:54.268Z,5.32
2018-05-13T02:28:56.748Z,4.47
2018-05-13T02:29:59.216Z,5.05
2018-05-13T02:31:02.857Z,5.05
2018-05-13T02:32:05.336Z,5.20
2018-05-13T02:33:07.816Z,4.80
2018-05-13T02:34:10.336Z,4.80
2018-05-13T02:35:13.737Z,4.80
2018-05-13T02:36:16.509Z,5.95
2018-05-13T02:37:19.012Z,5.85
2018-05-13T02:38:21.501Z,4.65
2018-05-13T02:39:24.791Z,5.10
2018-05-13T02:40:28.275Z,5.10
2018-05-13T02:41:31.519Z,6.87
2018-05-13T02:42:33.980Z,4.70
2018-05-13T02:43:36.468Z,4.62
2018-05-13T02:44:38.943Z,5.10
2018-05-13T02:45:41.656Z,5.37
2018-05-13T02:46:44.152Z,5.30
2018-05-13T02:47:46.616Z,5.05
2018-05-13T02:48:49.103Z,5.25
2018-05-13T02:49:52.339Z,5.70
2018-05-13T02:50:55.003Z,5.07
2018-05-13T02:51:57.564Z,5.62
2018-05-13T02:53:00.031Z,7.05
2018-05-13T02:54:02.524Z,5.25
2018-05-13T02:55:05.931Z,6.72
2018-05-13T02:56:09.474Z,5.68
2018-05-13T02:57:11.971Z,4.50
2018-05-13T02:58:14.431Z,4.93
2018-05-13T02:59:16.916Z,4.95
2018-05-13T03:00:19.640Z,4.25
2018-05-13T03:01:22.667Z,4.32
2018-05-13T03:02:25.131Z,3.45
2018-05-13T03:03:28.368Z,3.67
2018-05-13T03:04:30.848Z,4.53
2018-05-13T03:05:33.600Z,3.70
2018-05-13T03:06:36.095Z,4.93
2018-05-13T03:07:38.568Z,3.37
2018-05-13T03:08:41.032Z,3.30
2018-05-13T03:09:43.511Z,3.47
2018-05-13T03:10:46.226Z,3.28
2018-05-13T03:11:48.721Z,2.97
2018-05-13T03:12:51.188Z,3.08
2018-05-13T03:13:53.652Z,2.87
2018-05-13T03:14:56.135Z,3.35
2018-05-13T03:15:58.955Z,3.75
2018-05-13T03:17:01.456Z,3.00
2018-05-13T03:18:03.924Z,2.85
2018-05-13T03:19:06.478Z,4.90
2018-05-13T03:20:11.269Z,3.37
2018-05-13T03:21:14.148Z,3.22
2018-05-13T03:22:16.628Z,3.17
2018-05-13T03:23:19.095Z,3.22
2018-05-13T03:24:21.559Z,3.62
2018-05-13T03:25:24.253Z,4.07
2018-05-13T03:26:28.010Z,3.62
2018-05-13T03:27:30.482Z,6.10
2018-05-13T03:28:32.939Z,3.33
2018-05-13T03:29:35.408Z,3.05
2018-05-13T03:30:37.952Z,3.30
2018-05-13T03:31:40.422Z,5.68
2018-05-13T03:32:42.886Z,3.20
2018-05-13T03:33:45.350Z,3.25
2018-05-13T03:34:47.820Z,5.57
2018-05-13T03:35:50.691Z,3.85
2018-05-13T03:36:53.193Z,4.00
2018-05-13T03:37:55.660Z,5.65
2018-05-13T03:38:58.135Z,3.92
2018-05-13T03:40:00.607Z,6.45
2018-05-13T03:41:03.421Z,6.97
2018-05-13T03:42:05.947Z,3.35
2018-05-13T03:43:09.184Z,3.80
2018-05-13T03:44:11.673Z,5.40
2018-05-13T03:45:14.426Z,5.20
2018-05-13T03:46:17.143Z,3.92
2018-05-13T03:47:20.391Z,4.22
2018-05-13T03:48:22.851Z,4.22
2018-05-13T03:49:26.262Z,3.12
2018-05-13T03:50:28.977Z,3.75
2018-05-13T03:51:31.513Z,3.53
2018-05-13T03:52:34.748Z,3.55
2018-05-13T03:53:37.212Z,3.50
2018-05-13T03:54:39.676Z,4.07
2018-05-13T03:55:42.326Z,4.07
2018-05-13T03:56:44.832Z,4.93
2018-05-13T03:57:47.295Z,3.62
2018-05-13T03:58:49.787Z,3.65
2018-05-13T03:59:52.263Z,4.37
2018-05-13T04:00:56.900Z,3.87
2018-05-13T04:01:59.424Z,5.37
2018-05-13T04:03:02.657Z,5.62
2018-05-13T04:04:05.121Z,3.87
2018-05-13T04:05:07.882Z,3.95
2018-05-13T04:06:10.651Z,3.83
2018-05-13T04:07:13.189Z,4.20
2018-05-13T04:10:07.107Z,3.53
2018-05-13T04:11:21.646Z,3.33
2018-05-13T04:12:35.932Z,3.42
2018-05-13T04:13:50.163Z,3.60
2018-05-13T04:15:04.874Z,3.55
2018-05-13T04:16:07.545Z,3.97
2018-05-13T04:17:10.052Z,3.97
2018-05-13T04:18:12.516Z,4.60
2018-05-13T04:19:14.993Z,3.22
2018-05-13T04:20:17.706Z,4.65
2018-05-13T04:21:20.478Z,3.75
2018-05-13T04:22:22.999Z,4.18
2018-05-13T04:23:25.464Z,4.95
2018-05-13T04:24:27.940Z,3.62
2018-05-13T04:25:31.369Z,5.22
2018-05-13T04:26:33.856Z,3.58
2018-05-13T04:27:36.353Z,3.87
2018-05-13T04:28:40.320Z,4.68
2018-05-13T04:29:42.783Z,3.80
2018-05-13T04:30:45.523Z,3.90
2018-05-13T04:31:48.017Z,3.67
2018-05-13T04:32:50.504Z,3.95
2018-05-13T04:33:52.972Z,6.20
2018-05-13T04:34:55.439Z,4.43
2018-05-13T04:35:58.970Z,3.78
2018-05-13T04:37:03.521Z,3.72
2018-05-13T04:38:06.045Z,4.35
2018-05-13T04:39:08.503Z,4.45
2018-05-13T04:40:11.285Z,4.05
2018-05-13T04:41:14.159Z,4.15
2018-05-13T04:42:16.639Z,3.95
2018-05-13T04:43:19.127Z,3.78
2018-05-13T04:44:21.599Z,5.25
2018-05-13T04:45:24.370Z,4.07
2018-05-13T04:46:27.811Z,4.60
2018-05-13T04:47:30.300Z,4.55
2018-05-13T04:48:32.790Z,4.20
2018-05-13T04:49:35.300Z,5.57
2018-05-13T04:50:37.975Z,4.35
2018-05-13T04:51:40.469Z,4.78
2018-05-13T04:52:42.936Z,5.07
2018-05-13T04:53:45.411Z,4.55
2018-05-13T04:54:47.876Z,4.82
2018-05-13T04:55:50.603Z,5.80
2018-05-13T04:56:53.092Z,5.57
2018-05-13T04:57:55.556Z,4.37
2018-05-13T04:58:58.043Z,4.53
2018-05-13T05:00:00.511Z,5.62
2018-05-13T05:01:03.277Z,4.37
2018-05-13T05:02:06.528Z,4.68
2018-05-13T05:03:08.991Z,4.78
2018-05-13T05:04:11.541Z,5.62
2018-05-13T05:05:14.258Z,6.32
2018-05-13T05:06:16.985Z,4.55
2018-05-13T05:07:19.479Z,5.68
2018-05-13T05:08:21.944Z,6.18
2018-05-13T05:09:25.008Z,5.03
2018-05-13T05:10:27.764Z,5.10
2018-05-13T05:11:30.264Z,5.20
2018-05-13T05:12:32.732Z,5.07
2018-05-13T05:13:35.200Z,5.45
2018-05-13T05:14:37.676Z,5.93
2018-05-13T05:15:40.304Z,7.03
2018-05-13T05:16:42.789Z,5.70
2018-05-13T05:17:45.250Z,4.97
2018-05-13T05:18:47.719Z,4.90
2018-05-13T05:19:50.195Z,7.25
2018-05-13T05:20:53.604Z,5.55
2018-05-13T05:21:56.099Z,5.37
2018-05-13T05:22:58.561Z,5.97
2018-05-13T05:24:01.026Z,5.12
2018-05-13T05:25:03.799Z,6.57
2018-05-13T05:26:06.605Z,4.97
2018-05-13T05:27:09.088Z,6.32
2018-05-13T05:28:11.559Z,5.72
2018-05-13T05:29:15.523Z,5.72
2018-05-13T05:30:18.682Z,5.75
2018-05-13T05:31:21.497Z,7.57
2018-05-13T05:32:24.748Z,5.80
2018-05-13T05:33:27.208Z,6.95
2018-05-13T05:34:29.672Z,5.40
2018-05-13T05:35:32.434Z,6.53
2018-05-13T05:36:34.920Z,6.55
2018-05-13T05:37:37.386Z,5.93
2018-05-13T05:38:39.855Z,6.43
2018-05-13T05:39:42.320Z,5.35
2018-05-13T05:40:45.063Z,4.70
2018-05-13T05:41:47.562Z,5.00
2018-05-13T05:42:50.028Z,5.18
2018-05-13T05:43:52.490Z,4.62
2018-05-13T05:44:54.954Z,5.32
2018-05-13T05:45:57.745Z,6.32
2018-05-13T05:47:00.987Z,7.25
2018-05-13T05:48:03.452Z,5.80
2018-05-13T05:49:05.915Z,4.82
2018-05-13T05:50:08.674Z,6.32
2018-05-13T05:51:12.060Z,4.50
2018-05-13T05:52:14.558Z,8.13
2018-05-13T05:53:17.024Z,6.30
2018-05-13T05:54:19.495Z,7.15
2018-05-13T05:55:22.239Z,6.15
2018-05-13T05:56:25.406Z,7.18
2018-05-13T05:57:27.903Z,6.45
2018-05-13T05:58:30.369Z,5.68
2018-05-13T05:59:32.832Z,6.43
2018-05-13T06:00:35.569Z,6.25
2018-05-13T06:01:38.338Z,6.80
2018-05-13T06:02:40.802Z,6.15
2018-05-13T06:03:43.263Z,7.55
2018-05-13T06:04:45.723Z,6.15
2018-05-13T06:05:48.442Z,9.35
2018-05-13T06:06:50.931Z,6.22
2018-05-13T06:07:54.160Z,5.45
2018-05-13T06:08:56.624Z,5.85
2018-05-13T06:09:59.089Z,5.35
2018-05-13T06:11:02.567Z,6.12
2018-05-13T06:12:05.391Z,8.95
2018-05-13T06:13:07.860Z,8.73
2018-05-13T06:14:11.832Z,8.05
2018-05-13T06:15:14.470Z,8.63
2018-05-13T06:16:17.130Z,7.53
2018-05-13T06:17:19.632Z,7.45
2018-05-13T06:18:22.092Z,6.85
2018-05-13T06:19:25.120Z,6.97
2018-05-13T06:20:28.740Z,8.65
2018-05-13T06:21:31.508Z,8.15
2018-05-13T06:22:34.060Z,6.57
2018-05-13T06:23:37.287Z,6.78
2018-05-13T06:24:39.755Z,7.87
2018-05-13T06:25:42.529Z,11.38
2018-05-13T06:26:45.009Z,7.45
2018-05-13T06:27:47.488Z,7.82
2018-05-13T06:28:51.457Z,8.98
2018-05-13T06:29:53.917Z,7.43
2018-05-13T06:30:56.701Z,8.23
2018-05-13T06:31:59.945Z,9.98
2018-05-13T06:33:02.419Z,8.00
2018-05-13T06:34:04.884Z,9.00
2018-05-13T06:35:07.650Z,8.63
2018-05-13T06:36:11.362Z,7.43
2018-05-13T06:37:13.843Z,8.75
2018-05-13T06:38:16.327Z,13.45
2018-05-13T06:39:19.555Z,12.88
2018-05-13T06:40:22.259Z,12.73
2018-05-13T06:41:25.742Z,14.00
2018-05-13T06:42:28.216Z,11.57
2018-05-13T06:43:30.703Z,14.68
2018-05-13T06:44:33.936Z,11.35
2018-05-13T06:45:36.732Z,12.88
2018-05-13T06:46:40.006Z,13.13
2018-05-13T06:47:42.472Z,12.45
2018-05-13T06:48:44.956Z,12.45
2018-05-13T06:49:47.424Z,10.85
2018-05-13T06:50:50.313Z,12.75
2018-05-13T06:51:53.552Z,10.77
2018-05-13T06:52:56.012Z,10.38
2018-05-13T06:53:58.504Z,14.73
2018-05-13T06:55:00.968Z,10.15
2018-05-13T06:56:03.784Z,12.68
2018-05-13T06:57:06.281Z,12.85
2018-05-13T06:58:08.751Z,13.50
2018-05-13T06:59:11.255Z,18.23
2018-05-13T07:00:14.803Z,14.60
2018-05-13T07:01:17.539Z,16.62
2018-05-13T07:02:20.033Z,14.90
2018-05-13T07:03:22.504Z,17.90
2018-05-13T07:04:24.993Z,19.02
2018-05-13T07:05:28.527Z,17.15
2018-05-13T07:06:31.193Z,15.52
2018-05-13T07:07:33.692Z,17.25
2018-05-13T07:08:36.164Z,17.10
2018-05-13T07:09:38.660Z,17.20
2018-05-13T07:10:42.120Z,13.98
2018-05-13T07:11:44.600Z,14.68
2018-05-13T07:12:48.576Z,15.75
2018-05-13T07:13:51.045Z,15.68
2018-05-13T07:14:53.552Z,17.52
2018-05-13T07:15:56.965Z,14.68
2018-05-13T07:16:59.459Z,17.77
2018-05-13T07:18:01.924Z,17.62
2018-05-13T07:19:04.465Z,15.68
2018-05-13T07:20:07.165Z,18.25
2018-05-13T07:21:10.707Z,15.77
2018-05-13T07:22:13.211Z,16.40
2018-05-13T07:23:15.679Z,19.90
2018-05-13T07:24:18.148Z,21.50
2018-05-13T07:25:20.907Z,19.35
2018-05-13T07:26:24.403Z,18.65
2018-05-13T07:27:26.888Z,15.65
2018-05-13T07:28:30.123Z,17.45
2018-05-13T07:29:32.592Z,17.65
2018-05-13T07:30:35.393Z,19.90
2018-05-13T07:31:38.644Z,21.08
2018-05-13T07:32:41.111Z,21.50
2018-05-13T07:33:43.580Z,16.80
2018-05-13T07:34:46.056Z,19.62
2018-05-13T07:35:48.894Z,18.67
2018-05-13T07:36:51.404Z,19.70
2018-05-13T07:37:53.892Z,19.00
2018-05-13T07:38:56.372Z,20.58
2018-05-13T07:39:59.608Z,21.45
2018-05-13T07:41:02.443Z,21.90
2018-05-13T07:42:04.955Z,23.17
2018-05-13T07:43:07.427Z,19.65
2018-05-13T07:44:09.896Z,20.55
2018-05-13T07:45:12.542Z,19.35
2018-05-13T07:46:16.198Z,20.42
2018-05-13T07:47:18.704Z,19.67
2018-05-13T07:48:21.172Z,22.10
2018-05-13T07:49:23.836Z,26.80
2018-05-13T07:50:26.583Z,21.73
2018-05-13T07:51:29.092Z,24.40
2018-05-13T07:52:32.336Z,24.87
2018-05-13T07:53:34.803Z,23.35
2018-05-13T07:54:37.272Z,22.75
2018-05-13T07:55:39.912Z,25.45
2018-05-13T07:56:42.424Z,21.65
2018-05-13T07:57:44.908Z,21.60
2018-05-13T07:58:48.144Z,22.90
2018-05-13T07:59:50.615Z,22.23
2018-05-13T08:00:53.142Z,21.80
2018-05-13T08:01:55.640Z,23.85
2018-05-13T08:02:58.114Z,22.87
2018-05-13T08:04:00.592Z,21.65
2018-05-13T08:05:03.064Z,24.67
2018-05-13T08:06:06.604Z,23.05
2018-05-13T08:07:09.937Z,25.60
2018-05-13T08:08:12.404Z,23.05
2018-05-13T08:09:14.872Z,27.67
2018-05-13T08:10:18.409Z,22.75
2018-05-13T08:11:21.220Z,30.02
2018-05-13T08:12:25.232Z,28.75
2018-05-13T08:13:29.207Z,28.55
2018-05-13T08:14:31.679Z,26.35
2018-05-13T08:15:34.235Z,25.50
2018-05-13T08:16:36.712Z,27.67
2018-05-13T08:17:39.200Z,29.50
2018-05-13T08:18:42.436Z,23.62
2018-05-13T08:19:44.908Z,29.17
2018-05-13T08:20:47.654Z,26.42
2018-05-13T08:21:50.163Z,27.17
2018-05-13T08:22:52.648Z,26.08
2018-05-13T08:23:55.879Z,28.83
2018-05-13T08:24:58.403Z,26.80
2018-05-13T08:26:01.924Z,27.15
2018-05-13T08:27:04.424Z,25.67
2018-05-13T08:28:06.908Z,25.05
2018-05-13T08:29:09.376Z,27.10
2018-05-13T08:30:13.518Z,26.70
2018-05-13T08:31:16.187Z,28.15
2018-05-13T08:32:18.680Z,28.35
2018-05-13T08:33:21.171Z,28.20
2018-05-13T08:34:23.663Z,28.20
2018-05-13T08:35:27.273Z,25.42
2018-05-13T08:36:29.778Z,24.35
2018-05-13T08:37:32.251Z,25.70
2018-05-13T08:38:34.763Z,23.98
2018-05-13T08:39:37.232Z,25.88
2018-05-13T08:40:39.903Z,25.52
2018-05-13T08:41:42.403Z,25.05
2018-05-13T08:42:44.872Z,25.77
2018-05-13T08:43:47.362Z,24.67
2018-05-13T08:44:50.600Z,22.73
2018-05-13T08:45:53.252Z,25.15
2018-05-13T08:46:55.747Z,24.15
2018-05-13T08:47:58.215Z,23.25
2018-05-13T08:49:00.699Z,22.70
2018-05-13T08:50:04.230Z,22.87
2018-05-13T08:51:07.001Z,23.77
2018-05-13T08:52:09.500Z,26.27
2018-05-13T08:53:11.968Z,24.70
2018-05-13T08:54:14.471Z,24.08
2018-05-13T08:55:17.882Z,25.08
2018-05-13T08:56:20.756Z,25.08
2018-05-13T08:57:23.259Z,27.00
2018-05-13T08:58:25.728Z,25.90
2018-05-13T08:59:28.232Z,29.00
2018-05-13T09:00:31.738Z,24.63
2018-05-13T09:01:34.255Z,24.98
2018-05-13T09:02:36.729Z,28.25
2018-05-13T09:03:39.963Z,24.42
2018-05-13T09:04:42.474Z,26.05
2018-05-13T09:05:45.233Z,26.10
2018-05-13T09:06:48.488Z,26.27
2018-05-13T09:07:50.960Z,25.80
2018-05-13T09:08:53.425Z,24.75
2018-05-13T09:09:55.913Z,26.73
2018-05-13T09:10:58.633Z,30.42
2018-05-13T09:12:01.412Z,28.15
2018-05-13T09:13:03.876Z,26.60
2018-05-13T09:14:06.472Z,29.27
2018-05-13T09:15:09.412Z,27.48
2018-05-13T09:16:12.183Z,27.23
2018-05-13T09:17:14.688Z,26.67
2018-05-13T09:18:17.156Z,27.87
2018-05-13T09:19:19.624Z,28.27
2018-05-13T09:20:22.323Z,24.02
2018-05-13T09:21:24.870Z,26.95
2018-05-13T09:22:28.119Z,29.02
2018-05-13T09:23:30.588Z,29.40
2018-05-13T09:24:33.060Z,27.95
2018-05-13T09:25:36.921Z,29.65
2018-05-13T09:26:39.478Z,28.85
2018-05-13T09:27:42.703Z,28.45
2018-05-13T09:28:45.172Z,29.50
2018-05-13T09:29:47.640Z,32.25
2018-05-13T09:30:50.346Z,32.47
2018-05-13T09:31:52.836Z,32.03
2018-05-13T09:32:55.400Z,33.08
2018-05-13T09:33:57.796Z,32.10
2018-05-13T09:35:00.260Z,32.42
2018-05-13T09:36:03.100Z,33.15
2018-05-13T09:37:05.588Z,34.20
2018-05-13T09:38:08.060Z,34.38
2018-05-13T09:39:10.533Z,34.60
2018-05-13T09:40:13.266Z,33.83
2018-05-13T09:41:16.137Z,35.90
2018-05-13T09:42:18.646Z,34.50
2018-05-13T09:43:21.117Z,34.03
2018-05-13T09:44:23.588Z,34.42
2018-05-13T09:45:26.404Z,33.72
2018-05-13T09:46:29.071Z,34.28
2018-05-13T09:47:31.540Z,34.72
2018-05-13T09:48:34.009Z,35.63
2018-05-13T09:49:36.479Z,33.40
2018-05-13T09:50:39.237Z,32.45
2018-05-13T09:51:41.736Z,34.63
2018-05-13T09:52:44.207Z,33.28
2018-05-13T09:53:46.676Z,36.80
2018-05-13T09:54:49.144Z,36.40
2018-05-13T09:55:51.908Z,32.42
2018-05-13T09:56:54.412Z,35.10
2018-05-13T09:57:57.652Z,37.60
2018-05-13T09:59:00.120Z,39.03
2018-05-13T10:00:02.589Z,37.63
2018-05-13T10:01:05.415Z,37.53
2018-05-13T10:02:07.935Z,37.72
2018-05-13T10:03:11.916Z,37.20
2018-05-13T10:04:14.420Z,44.42
2018-05-13T10:05:17.217Z,38.95
2018-05-13T10:06:19.988Z,39.35
2018-05-13T10:07:22.767Z,41.67
2018-05-13T10:08:25.240Z,38.67
2018-05-13T10:09:27.722Z,38.72
2018-05-13T10:10:30.561Z,38.75
2018-05-13T10:11:33.052Z,39.53
2018-05-13T10:12:35.548Z,38.42
2018-05-13T10:13:38.012Z,38.95
2018-05-13T10:14:40.483Z,39.97
2018-05-13T10:15:43.296Z,41.00
2018-05-13T10:16:45.803Z,42.70
2018-05-13T10:17:48.292Z,42.47
2018-05-13T10:18:51.528Z,43.47
2018-05-13T10:19:53.995Z,42.17
2018-05-13T10:20:56.680Z,41.80
2018-05-13T10:21:59.163Z,43.78
2018-05-13T10:23:02.426Z,45.53
2018-05-13T10:24:04.904Z,45.17
2018-05-13T10:25:07.825Z,42.28
2018-05-13T10:26:10.699Z,46.08
2018-05-13T10:27:13.198Z,46.03
2018-05-13T10:28:15.687Z,47.45
2018-05-13T10:29:18.165Z,45.03
2018-05-13T10:30:21.682Z,44.13
2018-05-13T10:31:25.070Z,49.65
2018-05-13T10:32:27.551Z,45.50
2018-05-13T10:33:30.036Z,47.45
2018-05-13T10:34:32.508Z,47.08
2018-05-13T10:35:35.335Z,50.53
2018-05-13T10:36:37.828Z,51.63
2018-05-13T10:37:40.336Z,49.53
2018-05-13T10:38:42.819Z,47.90
2018-05-13T10:39:45.292Z,50.08
2018-05-13T10:40:48.054Z,49.47
2018-05-13T10:41:50.564Z,56.35
2018-05-13T10:42:53.032Z,49.15
2018-05-13T10:43:55.515Z,49.00
2018-05-13T10:44:57.987Z,55.97
2018-05-13T10:46:01.514Z,56.25
2018-05-13T10:47:04.007Z,52.97
2018-05-13T10:48:06.480Z,53.90
2018-05-13T10:49:08.968Z,54.03
2018-05-13T10:50:11.930Z,55.12
2018-05-13T10:51:15.064Z,52.97
2018-05-13T10:52:17.589Z,53.22
2018-05-13T10:53:20.056Z,47.53
2018-05-13T10:54:23.312Z,39.08
2018-05-13T10:55:26.090Z,47.15
2018-05-13T10:56:28.653Z,49.63
2018-05-13T10:57:31.140Z,48.50
2018-05-13T10:58:34.376Z,49.42
2018-05-13T10:59:36.864Z,49.95
2018-05-13T11:00:39.698Z,46.65
2018-05-13T11:01:42.205Z,47.62
2018-05-13T11:02:44.680Z,52.97
2018-05-13T11:03:47.152Z,50.88
2018-05-13T11:04:49.650Z,50.83
2018-05-13T11:05:52.940Z,53.63
2018-05-13T11:06:55.444Z,54.53
2018-05-13T11:07:57.912Z,50.38
2018-05-13T11:09:00.387Z,54.30
2018-05-13T11:10:02.880Z,55.45
2018-05-13T11:11:06.285Z,51.42
2018-05-13T11:12:08.787Z,51.37
2018-05-13T11:13:11.255Z,53.67
2018-05-13T11:14:13.725Z,52.15
2018-05-13T11:15:16.454Z,54.53
2018-05-13T11:16:19.836Z,51.08
2018-05-13T11:17:22.336Z,49.53
2018-05-13T11:18:24.808Z,52.85
2018-05-13T11:19:27.276Z,56.10
2018-05-13T11:20:29.987Z,52.90
2018-05-13T11:21:32.481Z,53.53
2018-05-13T11:22:34.948Z,50.58
2018-05-13T11:23:37.420Z,48.47
2018-05-13T11:24:39.891Z,57.08
2018-05-13T11:25:42.674Z,51.40
2018-05-13T11:26:46.695Z,48.20
2018-05-13T11:27:49.156Z,48.60
2018-05-13T11:28:51.630Z,47.20
2018-05-13T11:29:54.863Z,47.28
2018-05-13T11:30:57.932Z,50.97
2018-05-13T11:32:00.426Z,49.88
2018-05-13T11:33:02.899Z,48.50
2018-05-13T11:34:05.375Z,52.33
2018-05-13T11:35:08.083Z,51.33
2018-05-13T11:36:10.854Z,52.53
2018-05-13T11:37:13.351Z,48.63
2018-05-13T11:38:15.824Z,47.62
2018-05-13T11:39:18.291Z,48.92
2018-05-13T11:40:22.144Z,46.58
2018-05-13T11:41:25.377Z,45.70
2018-05-13T11:42:28.624Z,46.72
2018-05-13T11:43:31.092Z,51.75
2018-05-13T11:44:33.560Z,51.35
2018-05-13T11:45:36.411Z,50.63
2018-05-13T11:46:38.945Z,50.05
2018-05-13T11:47:41.408Z,49.70
2018-05-13T11:48:44.648Z,49.63
2018-05-13T11:49:47.117Z,50.38
2018-05-13T11:50:50.621Z,51.92
2018-05-13T11:51:53.899Z,46.40
2018-05-13T11:52:56.368Z,52.08
2018-05-13T11:53:58.841Z,45.80
2018-05-13T11:55:01.332Z,47.50
2018-05-13T11:56:04.753Z,47.97
2018-05-13T11:57:07.263Z,47.58
2018-05-13T11:58:09.732Z,46.88
2018-05-13T11:59:13.708Z,49.22
2018-05-13T12:00:16.488Z,46.85
2018-05-13T12:01:19.928Z,43.78
2018-05-13T12:02:22.499Z,43.75
2018-05-13T12:03:24.923Z,48.50
2018-05-13T12:04:28.160Z,42.53
2018-05-13T12:05:30.910Z,45.35
2018-05-13T12:06:33.499Z,40.33
2018-05-13T12:07:35.979Z,47.67
2018-05-13T12:08:38.447Z,46.35
2018-05-13T12:09:40.921Z,44.78
2018-05-13T12:10:43.642Z,43.03
2018-05-13T12:11:46.144Z,42.95
2018-05-13T12:12:48.624Z,43.05
2018-05-13T12:13:51.868Z,45.17
2018-05-13T12:14:54.536Z,43.55
2018-05-13T12:15:57.247Z,45.85
2018-05-13T12:17:00.539Z,43.63
2018-05-13T12:18:03.015Z,42.00
2018-05-13T12:19:06.252Z,42.97
2018-05-13T12:20:08.893Z,42.55
2018-05-13T12:21:11.560Z,42.75
2018-05-13T12:22:14.084Z,44.15
2018-05-13T12:23:16.552Z,46.47
2018-05-13T12:24:19.020Z,42.53
2018-05-13T12:25:21.728Z,43.92
2018-05-13T12:26:25.520Z,42.62
2018-05-13T12:27:28.045Z,44.50
2018-05-13T12:28:30.512Z,45.33
2018-05-13T12:29:33.756Z,44.55
2018-05-13T12:30:36.503Z,47.00
2018-05-13T12:31:39.002Z,44.17
2018-05-13T12:32:41.492Z,42.13
2018-05-13T12:33:43.964Z,40.72
2018-05-13T12:34:47.204Z,47.03
2018-05-13T12:35:49.994Z,43.92
2018-05-13T12:36:52.476Z,42.60
2018-05-13T12:37:54.971Z,37.17
2018-05-13T12:38:57.444Z,42.25
2018-05-13T12:39:59.916Z,44.80
2018-05-13T12:41:02.625Z,41.95
2018-05-13T12:42:05.104Z,37.53
2018-05-13T12:43:07.608Z,37.22
2018-05-13T12:44:10.080Z,36.90
2018-05-13T12:45:13.341Z,40.05
2018-05-13T12:46:16.026Z,38.08
2018-05-13T12:47:18.523Z,39.30
2018-05-13T12:48:21.028Z,38.95
2018-05-13T12:49:24.264Z,35.83
2018-05-13T12:50:27.009Z,40.92
2018-05-13T12:51:29.512Z,35.58
2018-05-13T12:52:31.979Z,37.10
2018-05-13T12:53:34.468Z,38.80
2018-05-13T12:54:37.704Z,37.75
2018-05-13T12:55:40.395Z,36.47
2018-05-13T12:56:42.883Z,35.90
2018-05-13T12:57:46.124Z,38.28
2018-05-13T12:58:48.608Z,37.90
2018-05-13T12:59:51.075Z,44.20
2018-05-13T13:00:53.820Z,38.45
2018-05-13T13:01:56.311Z,37.92
2018-05-13T13:02:58.784Z,32.47
2018-05-13T13:04:01.270Z,39.33
2018-05-13T13:05:04.784Z,39.70
2018-05-13T13:06:07.559Z,36.58
2018-05-13T13:07:10.060Z,34.05
2018-05-13T13:08:12.528Z,39.03
2018-05-13T13:09:15.013Z,36.10
2018-05-13T13:10:18.056Z,40.55
2018-05-13T13:11:20.798Z,40.40
2018-05-13T13:12:23.292Z,38.70
2018-05-13T13:13:25.763Z,38.60
2018-05-13T13:14:28.248Z,38.78
2018-05-13T13:15:30.997Z,36.40
2018-05-13T13:16:33.504Z,35.17
2018-05-13T13:17:36.738Z,37.85
2018-05-13T13:18:39.204Z,38.75
2018-05-13T13:19:41.700Z,36.33
2018-05-13T13:20:45.127Z,36.58
2018-05-13T13:21:47.656Z,35.17
2018-05-13T13:22:50.894Z,35.83
2018-05-13T13:23:53.363Z,38.30
2018-05-13T13:24:55.868Z,36.80
2018-05-13T13:26:00.164Z,36.90
2018-05-13T13:27:03.421Z,37.05
2018-05-13T13:28:05.892Z,36.25
2018-05-13T13:29:08.360Z,38.20
2018-05-13T13:30:12.064Z,36.85
2018-05-13T13:31:15.503Z,36.10
2018-05-13T13:32:17.999Z,36.75
2018-05-13T13:33:20.468Z,39.38
2018-05-13T13:34:22.936Z,36.08
2018-05-13T13:35:25.667Z,34.92
2018-05-13T13:36:28.372Z,37.90
2018-05-13T13:37:30.864Z,36.60
2018-05-13T13:38:34.840Z,32.72
2018-05-13T13:39:37.317Z,33.25
2018-05-13T13:40:40.090Z,31.42
2018-05-13T13:41:42.575Z,29.98
2018-05-13T13:42:45.811Z,33.30